KGCD

Grant Co Regional / Ogilvie Field Airport

John Day, Oregon, USA
METAR KGCD 181415Z AUTO 18008KT 10SM CLR 01/M03 A3016 RMK AO2 T00131028
Observed Flight Rules
Jan-18 @ 14:15 UTC (19 minutes ago) Visual Flight Rules
Wind Visibility Clouds
180° at 8 knots 10 miles
  • Clear skies
Temperatures Readings
Current 1°C / 34°F
Dewpoint -3°C / 27°F
Humidity 75%
Altimeter 30.16" Hg
Pressure 1021.32 hPa
Elevation 1127
METAR KGCD 181415Z AUTO 18008KT 10SM CLR 01/M03 A3016 RMK AO2 T00131028
Observed Flight Rules
Jan-18 @ 14:15 UTC
(19 minutes ago)
VFR
Wind Visibility
180° at 8 knots 10 miles
Clouds
  • Clear skies
Temperature Dewpoint
1°C / 34°F -3°C / 27°F
Humidity Altimeter Pressure
75% 30.16" Hg 1021.32 hPa